Flight Number: EUR2104 Duration: 1:15
Departure: Hamburg Fuhlsbuettel (EDDH) at 08:00 Distance: 324 Nm
Arrival: Munich Int'l (EDDM) at 09:15 Equipment: DHC8

Weather Information
Hamburg-Fuhlsbuettel, Germany (EDDH) 53-38N 010-00E 15M Aug 19, 2018 - 04:50 AM EDT / 2018.08.19 0850 UTC
Wind: from the SW (220 degrees) at 10 MPH (9 KT):0
Visibility: greater than 7 mile(s):0
Sky conditions: mostly cloudy Temperature: 68 F (20 C) Dew Point: 57 F (14 C) Relative Humidity: 68% Pressure (altimeter): 30.12 in. Hg (1020 hPa)
ob: EDDH 190850Z 22009KT 9999 FEW022 BKN040 20/14 Q1020 NOSIG cycle: 9
Sunrise: 04:11 Sunset: 18:35 (UTC)

Munchen, Germany (EDDM) 48-21N 011-47E Aug 19, 2018 - 04:50 AM EDT / 2018.08.19 0850 UTC
Wind: Variable at 3 MPH (3 KT):0
Visibility: greater than 7 mile(s):0 Temperature: 75 F (24 C) Dew Point: 59 F (15 C) Relative Humidity: 57% Pressure (altimeter): 30.18 in. Hg (1022 hPa)
ob: EDDM 190850Z VRB03KT CAVOK 24/15 Q1022 NOSIG cycle: 9
Sunrise: 04:16 Sunset: 18:15 (UTC)

TAF:2018/08/19 06:27 TAF EDDM 190500Z 1906/2012 VRB03KT CAVOK TEMPO 1906/1909 26005KT TEMPO 1911/1916 02005KT BECMG 1920/1922 25005KT

Previous Pireps for this route
Date Aircraft Flight time Fuel used Landing rate On time
2012-08-12DHC81.1315660Yes
2014-12-24DHC81.327522-162No
2017-01-10B73701.247868-452Charter
(pireps marked green are flown by you)

Route map